createdAt,value
2018-09-28T00:00:11.060Z,99.90
2018-09-28T00:02:39.623Z,99.90
2018-09-28T00:05:07.144Z,99.90
2018-09-28T00:07:34.671Z,99.90
2018-09-28T00:10:02.245Z,99.90
2018-09-28T00:12:30.884Z,99.90
2018-09-28T00:14:58.444Z,99.90
2018-09-28T00:17:25.999Z,99.90
2018-09-28T00:19:53.539Z,99.90
2018-09-28T00:22:22.212Z,99.90
2018-09-28T00:24:49.715Z,99.90
2018-09-28T00:27:17.224Z,99.90
2018-09-28T00:29:44.798Z,99.90
2018-09-28T00:32:20.051Z,99.90
2018-09-28T00:34:47.612Z,99.90
2018-09-28T00:37:15.115Z,99.90
2018-09-28T00:39:42.679Z,99.90
2018-09-28T00:42:10.324Z,99.90
2018-09-28T00:44:38.064Z,99.90
2018-09-28T00:47:05.877Z,99.90
2018-09-28T00:49:33.540Z,99.90
2018-09-28T00:52:16.260Z,99.90
2018-09-28T00:54:44.032Z,99.90
2018-09-28T00:57:11.743Z,99.90
2018-09-28T00:59:39.412Z,99.90
2018-09-28T01:02:14.300Z,99.90
2018-09-28T01:04:42.031Z,99.90
2018-09-28T01:07:09.600Z,99.90
2018-09-28T01:09:37.176Z,99.90
2018-09-28T01:12:07.887Z,99.90
2018-09-28T01:14:35.447Z,99.90
2018-09-28T01:17:02.983Z,99.90
2018-09-28T01:19:30.499Z,99.90
2018-09-28T01:22:00.100Z,99.90
2018-09-28T01:24:27.599Z,99.90
2018-09-28T01:26:55.171Z,99.90
2018-09-28T01:29:22.683Z,99.90
2018-09-28T01:31:57.873Z,99.90
2018-09-28T01:34:25.446Z,99.90
2018-09-28T01:36:52.959Z,99.90
2018-09-28T01:39:20.531Z,99.90
2018-09-28T01:41:51.256Z,99.90
2018-09-28T01:44:18.798Z,99.90
2018-09-28T01:46:46.406Z,99.90
2018-09-28T01:49:13.927Z,99.90
2018-09-28T01:51:47.172Z,99.90
2018-09-28T01:54:14.758Z,99.90
2018-09-28T01:56:42.307Z,99.90
2018-09-28T01:59:09.871Z,99.90
2018-09-28T02:01:38.442Z,99.90
2018-09-28T02:04:05.953Z,99.90
2018-09-28T02:06:33.455Z,99.90
2018-09-28T02:09:00.992Z,99.90
2018-09-28T02:11:28.604Z,99.90
2018-09-28T02:13:56.166Z,99.90
2018-09-28T02:16:23.788Z,99.90
2018-09-28T02:18:51.479Z,99.90
2018-09-28T02:21:26.819Z,99.90
2018-09-28T02:23:54.472Z,99.90
2018-09-28T02:26:22.111Z,99.90
2018-09-28T02:28:49.724Z,99.90
2018-09-28T02:31:18.528Z,99.90
2018-09-28T02:33:46.192Z,99.90
2018-09-28T02:36:13.856Z,99.90
2018-09-28T02:38:41.529Z,99.90
2018-09-28T02:41:10.291Z,99.90
2018-09-28T02:43:38.003Z,99.90
2018-09-28T02:46:05.760Z,99.90
2018-09-28T02:48:33.490Z,99.90
2018-09-28T02:51:03.260Z,99.90
2018-09-28T02:53:30.952Z,99.90
2018-09-28T02:55:58.688Z,99.90
2018-09-28T02:58:26.404Z,99.90
2018-09-28T03:00:57.892Z,99.90
2018-09-28T03:03:25.536Z,99.90
2018-09-28T03:05:53.249Z,99.90
2018-09-28T03:08:20.940Z,99.90
2018-09-28T03:10:48.675Z,99.90
2018-09-28T03:13:16.336Z,99.90
2018-09-28T03:15:43.984Z,99.90
2018-09-28T03:18:11.679Z,99.90
2018-09-28T03:20:39.203Z,99.90
2018-09-28T03:23:13.767Z,99.90
2018-09-28T03:25:41.354Z,99.90
2018-09-28T03:28:08.845Z,99.90
2018-09-28T03:30:36.431Z,99.90
2018-09-28T03:33:21.163Z,99.90
2018-09-28T03:35:48.800Z,99.90
2018-09-28T03:38:16.399Z,99.90
2018-09-28T03:40:43.982Z,99.90
2018-09-28T03:43:11.500Z,99.90
2018-09-28T03:45:39.068Z,99.90
2018-09-28T03:48:06.632Z,99.90
2018-09-28T03:50:34.155Z,99.90
2018-09-28T03:53:01.731Z,99.90
2018-09-28T03:55:29.329Z,99.90
2018-09-28T03:57:56.830Z,99.90
2018-09-28T04:00:24.393Z,99.90
2018-09-28T04:02:59.775Z,99.90
2018-09-28T04:05:27.276Z,99.90
2018-09-28T04:07:54.872Z,99.90
2018-09-28T04:10:22.450Z,99.90
2018-09-28T04:12:50.055Z,99.90
2018-09-28T04:15:17.660Z,99.90
2018-09-28T04:17:45.183Z,99.90
2018-09-28T04:20:12.730Z,99.90
2018-09-28T04:22:45.913Z,99.90
2018-09-28T04:25:13.428Z,99.90
2018-09-28T04:27:41.000Z,99.90
2018-09-28T04:30:08.579Z,99.90
2018-09-28T04:32:44.724Z,99.90
2018-09-28T04:35:12.281Z,99.90
2018-09-28T04:37:39.859Z,99.90
2018-09-28T04:40:07.391Z,99.90
2018-09-28T04:42:52.901Z,99.90
2018-09-28T04:45:27.248Z,99.90
2018-09-28T04:47:54.790Z,99.90
2018-09-28T04:50:22.351Z,99.90
2018-09-28T04:52:53.608Z,99.90
2018-09-28T04:55:21.204Z,99.90
2018-09-28T04:57:48.816Z,99.90
2018-09-28T05:00:16.428Z,99.90
2018-09-28T05:02:44.031Z,99.90
2018-09-28T05:05:11.603Z,99.90
2018-09-28T05:07:39.159Z,99.90
2018-09-28T05:10:06.748Z,99.90
2018-09-28T05:12:41.907Z,99.90
2018-09-28T05:15:09.476Z,99.90
2018-09-28T05:17:37.042Z,99.90
2018-09-28T05:20:04.604Z,99.90
2018-09-28T05:22:32.251Z,99.90
2018-09-28T05:24:59.827Z,99.90
2018-09-28T05:27:27.476Z,99.90
2018-09-28T05:29:55.208Z,99.90
2018-09-28T05:32:23.133Z,99.90
2018-09-28T05:34:50.491Z,99.90
2018-09-28T05:37:18.041Z,99.90
2018-09-28T05:39:45.547Z,99.90
2018-09-28T05:42:13.260Z,99.90
2018-09-28T05:44:40.779Z,99.90
2018-09-28T05:47:08.360Z,99.90
2018-09-28T05:49:35.930Z,99.90
2018-09-28T05:52:09.251Z,99.90
2018-09-28T05:54:36.776Z,99.90
2018-09-28T05:57:04.311Z,99.90
2018-09-28T05:59:37.260Z,99.90
2018-09-28T06:02:12.274Z,99.90
2018-09-28T06:04:45.312Z,99.90
2018-09-28T06:07:12.915Z,99.90
2018-09-28T06:09:40.439Z,99.90
2018-09-28T06:12:08.961Z,99.90
2018-09-28T06:14:36.507Z,99.90
2018-09-28T06:17:04.228Z,99.90
2018-09-28T06:19:31.791Z,99.90
2018-09-28T06:22:07.007Z,99.90
2018-09-28T06:24:34.553Z,99.90
2018-09-28T06:27:02.061Z,99.90
2018-09-28T06:29:29.640Z,99.90
2018-09-28T06:31:58.267Z,99.90
2018-09-28T06:34:25.832Z,99.90
2018-09-28T06:36:53.339Z,99.90
2018-09-28T06:39:20.912Z,99.90
2018-09-28T06:41:50.582Z,99.90
2018-09-28T06:44:18.104Z,99.90
2018-09-28T06:46:45.680Z,99.90
2018-09-28T06:49:13.223Z,99.90
2018-09-28T06:51:40.820Z,99.90
2018-09-28T06:54:08.384Z,99.90
2018-09-28T06:56:35.885Z,99.90
2018-09-28T06:59:03.546Z,99.90
2018-09-28T07:01:31.310Z,99.90
2018-09-28T07:03:58.977Z,99.90
2018-09-28T07:06:26.665Z,99.90
2018-09-28T07:08:54.298Z,99.90
2018-09-28T07:11:26.233Z,99.90
2018-09-28T07:13:53.881Z,99.90
2018-09-28T07:16:21.559Z,99.90
2018-09-28T07:18:49.188Z,99.90
2018-09-28T07:21:24.488Z,99.90
2018-09-28T07:23:52.182Z,99.90
2018-09-28T07:26:19.768Z,99.90
2018-09-28T07:28:47.497Z,99.90
2018-09-28T07:31:17.249Z,99.90
2018-09-28T07:33:44.885Z,99.90
2018-09-28T07:36:12.668Z,99.90
2018-09-28T07:38:40.313Z,99.90
2018-09-28T07:41:15.795Z,99.90
2018-09-28T07:43:43.528Z,99.90
2018-09-28T07:46:11.336Z,99.90
2018-09-28T07:48:39.023Z,99.90
2018-09-28T07:51:07.742Z,99.90
2018-09-28T07:53:35.460Z,99.90
2018-09-28T07:56:03.128Z,99.90
2018-09-28T07:58:30.827Z,99.90
2018-09-28T08:00:58.640Z,99.90
2018-09-28T08:03:28.180Z,99.90
2018-09-28T08:05:56.719Z,99.90
2018-09-28T08:08:24.455Z,99.90
2018-09-28T08:10:52.179Z,99.90
2018-09-28T08:13:20.108Z,99.90
2018-09-28T08:15:47.986Z,99.90
2018-09-28T08:18:15.660Z,99.90
2018-09-28T08:20:43.308Z,99.90
2018-09-28T08:23:10.996Z,99.90
2018-09-28T08:25:38.720Z,99.90
2018-09-28T08:28:06.307Z,99.90
2018-09-28T08:30:33.898Z,99.90
2018-09-28T08:33:01.465Z,99.90
2018-09-28T08:35:28.983Z,99.90
2018-09-28T08:37:56.551Z,99.90
2018-09-28T08:40:24.102Z,99.90
2018-09-28T08:42:53.693Z,99.90
2018-09-28T08:45:21.256Z,99.90
2018-09-28T08:47:48.779Z,99.90
2018-09-28T08:50:16.291Z,99.90
2018-09-28T08:52:44.919Z,99.90
2018-09-28T08:55:12.508Z,99.90
2018-09-28T08:57:40.019Z,99.90
2018-09-28T09:00:07.624Z,99.90
2018-09-28T09:02:38.651Z,99.90
2018-09-28T09:05:06.171Z,99.90
2018-09-28T09:07:33.687Z,99.90
2018-09-28T09:10:01.263Z,99.90
2018-09-28T09:12:32.392Z,99.90
2018-09-28T09:14:59.962Z,99.90
2018-09-28T09:17:27.652Z,99.90
2018-09-28T09:19:55.357Z,99.90
2018-09-28T09:22:23.144Z,99.90
2018-09-28T09:24:50.840Z,99.90
2018-09-28T09:27:18.542Z,99.90
2018-09-28T09:29:46.226Z,99.90
2018-09-28T09:32:30.792Z,99.90
2018-09-28T09:34:58.560Z,99.90
2018-09-28T09:39:53.617Z,99.90
2018-09-28T09:42:21.418Z,99.90
2018-09-28T09:44:49.179Z,99.90
2018-09-28T09:47:16.964Z,99.90
2018-09-28T09:49:44.633Z,99.90
2018-09-28T09:52:13.388Z,99.90
2018-09-28T09:57:08.402Z,99.90
2018-09-28T09:59:36.116Z,99.90
2018-09-28T10:02:11.292Z,99.90
2018-09-28T10:04:39.032Z,99.90
2018-09-28T10:07:06.673Z,99.90
2018-09-28T10:09:34.335Z,99.90
2018-09-28T10:14:31.467Z,99.90
2018-09-28T10:16:59.119Z,99.90
2018-09-28T10:19:26.984Z,99.90
2018-09-28T10:21:55.658Z,99.90
2018-09-28T10:26:50.739Z,99.90
2018-09-28T10:29:18.419Z,99.50
2018-09-28T10:31:47.158Z,97.90
2018-09-28T10:34:14.828Z,97.90
2018-09-28T10:36:42.536Z,94.10
2018-09-28T10:39:10.638Z,96.00
2018-09-28T10:41:38.352Z,94.80
2018-09-28T10:44:06.157Z,93.50
2018-09-28T10:49:01.295Z,93.80
2018-09-28T10:51:33.027Z,94.80
2018-09-28T10:54:00.709Z,90.70
2018-09-28T10:58:56.002Z,88.90
2018-09-28T11:01:24.577Z,87.10
2018-09-28T11:03:52.267Z,84.70
2018-09-28T11:06:19.938Z,80.30
2018-09-28T11:08:47.784Z,81.60
2018-09-28T11:13:54.275Z,75.20
2018-09-28T11:16:21.864Z,76.20
2018-09-28T11:18:49.571Z,72.80
2018-09-28T11:21:17.185Z,75.20
2018-09-28T11:23:44.749Z,71.60
2018-09-28T11:26:12.380Z,68.90
2018-09-28T11:31:10.827Z,65.60
2018-09-28T11:33:38.411Z,69.30
2018-09-28T11:36:05.904Z,68.90
2018-09-28T11:38:33.440Z,71.00
2018-09-28T11:41:22.988Z,70.30
2018-09-28T11:43:50.508Z,70.20
2018-09-28T11:46:18.075Z,63.90
2018-09-28T11:48:45.597Z,60.00
2018-09-28T11:56:15.347Z,57.40
2018-09-28T11:58:42.936Z,55.70
2018-09-28T12:03:43.139Z,95.40
2018-09-28T12:08:37.863Z,50.90
2018-09-28T12:11:13.316Z,49.80
2018-09-28T12:13:40.993Z,50.20
2018-09-28T12:16:08.557Z,50.20
2018-09-28T12:18:36.182Z,49.20
2018-09-28T12:21:04.857Z,48.50
2018-09-28T12:23:32.527Z,49.10
2018-09-28T12:26:00.192Z,48.70
2018-09-28T12:28:27.948Z,51.20
2018-09-28T12:30:55.743Z,50.70
2018-09-28T12:33:23.389Z,49.40
2018-09-28T12:35:50.875Z,47.50
2018-09-28T12:38:18.389Z,48.80
2018-09-28T12:40:45.995Z,49.10
2018-09-28T12:43:13.535Z,48.30
2018-09-28T12:45:41.119Z,47.80
2018-09-28T12:48:08.742Z,46.60
2018-09-28T12:53:08.776Z,43.20
2018-09-28T12:55:36.303Z,40.80
2018-09-28T12:58:03.927Z,39.20
2018-09-28T13:00:31.474Z,39.30
2018-09-28T13:02:59.118Z,39.20
2018-09-28T13:07:53.959Z,40.40
2018-09-28T13:10:21.494Z,42.30
2018-09-28T13:12:49.205Z,40.00
2018-09-28T13:15:16.780Z,42.10
2018-09-28T13:17:44.308Z,41.70
2018-09-28T13:20:11.910Z,42.40
2018-09-28T13:22:42.595Z,41.30
2018-09-28T13:25:10.136Z,38.00
2018-09-28T13:27:37.691Z,37.30
2018-09-28T13:30:05.238Z,38.80
2018-09-28T13:32:37.482Z,39.50
2018-09-28T13:35:04.999Z,40.10
2018-09-28T13:37:32.616Z,39.40
2018-09-28T13:40:00.164Z,41.00
2018-09-28T13:42:27.743Z,38.30
2018-09-28T13:44:55.356Z,36.30
2018-09-28T13:47:22.899Z,36.70
2018-09-28T13:49:50.468Z,37.50
2018-09-28T13:52:18.151Z,36.60
2018-09-28T13:54:45.746Z,36.00
2018-09-28T13:57:13.267Z,36.40
2018-09-28T13:59:40.911Z,40.70
2018-09-28T14:02:08.677Z,44.30
2018-09-28T14:09:31.154Z,52.60
2018-09-28T14:11:59.848Z,54.90
2018-09-28T14:14:27.641Z,56.00
2018-09-28T14:16:55.231Z,57.20
2018-09-28T14:22:00.132Z,60.00
2018-09-28T14:24:27.874Z,68.90
2018-09-28T14:26:55.468Z,64.50
2018-09-28T14:29:23.138Z,66.50
2018-09-28T14:32:08.222Z,68.30
2018-09-28T14:34:35.943Z,70.10
2018-09-28T14:37:03.645Z,72.00
2018-09-28T14:42:06.434Z,75.00
2018-09-28T14:47:01.544Z,77.30
2018-09-28T14:49:29.188Z,78.60
2018-09-28T14:51:57.880Z,80.20
2018-09-28T14:54:25.632Z,77.40
2018-09-28T14:56:53.293Z,78.30
2018-09-28T14:59:20.964Z,79.00
2018-09-28T15:02:09.669Z,79.30
2018-09-28T15:04:37.366Z,80.40
2018-09-28T15:07:05.127Z,83.10
2018-09-28T15:12:16.216Z,83.80
2018-09-28T15:14:43.909Z,85.60
2018-09-28T15:17:11.564Z,87.00
2018-09-28T15:19:39.264Z,87.60
2018-09-28T15:22:14.324Z,87.90
2018-09-28T15:24:42.028Z,89.50
2018-09-28T15:27:09.698Z,89.90
2018-09-28T15:29:37.513Z,90.30
2018-09-28T15:32:18.235Z,90.60
2018-09-28T15:34:45.935Z,91.30
2018-09-28T15:37:13.608Z,92.00
2018-09-28T15:42:12.452Z,93.20
2018-09-28T15:44:40.148Z,94.10
2018-09-28T15:49:35.299Z,95.10
2018-09-28T15:54:43.339Z,97.50
2018-09-28T15:57:11.069Z,99.50
2018-09-28T16:02:13.541Z,99.90
2018-09-28T16:04:41.304Z,99.90
2018-09-28T16:09:36.303Z,99.90
2018-09-28T16:12:12.692Z,99.90
2018-09-28T16:14:40.303Z,99.90
2018-09-28T16:17:07.999Z,99.90
2018-09-28T16:19:35.685Z,99.90
2018-09-28T16:22:05.419Z,99.90
2018-09-28T16:24:33.069Z,99.90
2018-09-28T16:27:00.789Z,99.90
2018-09-28T16:29:28.451Z,99.90
2018-09-28T16:32:05.588Z,99.90
2018-09-28T16:34:33.276Z,99.90
2018-09-28T16:37:00.976Z,99.90
2018-09-28T16:39:28.712Z,99.90
2018-09-28T16:42:04.248Z,99.90
2018-09-28T16:44:31.948Z,99.90
2018-09-28T16:46:59.663Z,99.90
2018-09-28T16:49:27.399Z,99.90
2018-09-28T16:51:55.104Z,99.90
2018-09-28T16:54:22.809Z,99.90
2018-09-28T16:56:50.508Z,99.90
2018-09-28T16:59:18.213Z,99.90
2018-09-28T17:01:50.480Z,99.90
2018-09-28T17:04:18.170Z,99.90
2018-09-28T17:06:45.860Z,99.90
2018-09-28T17:09:13.511Z,99.90
2018-09-28T17:11:44.841Z,99.90
2018-09-28T17:14:12.540Z,99.90
2018-09-28T17:16:40.175Z,99.90
2018-09-28T17:19:07.909Z,99.90
2018-09-28T17:21:35.528Z,99.90
2018-09-28T17:24:03.152Z,99.90
2018-09-28T17:26:30.684Z,99.90
2018-09-28T17:28:58.208Z,99.90
2018-09-28T17:31:32.216Z,99.90
2018-09-28T17:33:59.869Z,99.90
2018-09-28T17:36:27.480Z,99.90
2018-09-28T17:38:55.076Z,99.90
2018-09-28T17:41:22.910Z,99.90
2018-09-28T17:43:50.589Z,99.90
2018-09-28T17:46:18.288Z,99.90
2018-09-28T17:48:45.974Z,99.90
2018-09-28T17:51:14.766Z,99.90
2018-09-28T17:53:42.524Z,99.90
2018-09-28T17:56:10.216Z,99.90
2018-09-28T17:58:37.933Z,99.90
2018-09-28T18:01:05.680Z,99.90
2018-09-28T18:03:33.380Z,99.90
2018-09-28T18:06:01.069Z,99.90
2018-09-28T18:08:28.806Z,99.90
2018-09-28T18:10:57.517Z,99.90
2018-09-28T18:13:25.236Z,99.90
2018-09-28T18:15:53.011Z,99.90
2018-09-28T18:18:20.670Z,99.90
2018-09-28T18:21:05.531Z,99.90
2018-09-28T18:23:33.216Z,99.90
2018-09-28T18:26:01.044Z,99.90
2018-09-28T18:28:28.668Z,99.90
2018-09-28T18:31:04.872Z,99.90
2018-09-28T18:33:32.807Z,99.90
2018-09-28T18:36:00.424Z,99.90
2018-09-28T18:38:28.169Z,99.90
2018-09-28T18:40:55.908Z,99.90
2018-09-28T18:43:23.671Z,99.90
2018-09-28T18:45:51.410Z,99.90
2018-09-28T18:48:19.147Z,99.90
2018-09-28T18:50:46.856Z,99.90
2018-09-28T18:53:14.559Z,99.90
2018-09-28T18:55:42.707Z,99.90
2018-09-28T18:58:11.456Z,99.90
2018-09-28T19:00:39.656Z,99.90
2018-09-28T19:03:11.372Z,99.90
2018-09-28T19:05:38.919Z,99.90
2018-09-28T19:08:06.580Z,99.90
2018-09-28T19:10:34.247Z,99.90
2018-09-28T19:13:03.033Z,99.90
2018-09-28T19:15:30.691Z,99.90
2018-09-28T19:17:58.344Z,99.90
2018-09-28T19:20:26.048Z,99.90
2018-09-28T19:22:54.753Z,99.90
2018-09-28T19:25:22.384Z,99.90
2018-09-28T19:27:50.091Z,99.90
2018-09-28T19:30:17.781Z,99.90
2018-09-28T19:32:45.480Z,99.90
2018-09-28T19:37:40.563Z,99.90
2018-09-28T19:40:08.443Z,99.90
2018-09-28T19:42:36.159Z,99.90
2018-09-28T19:45:03.920Z,99.90
2018-09-28T19:47:31.603Z,99.90
2018-09-28T19:49:59.296Z,99.90
2018-09-28T19:52:27.032Z,99.90
2018-09-28T19:55:01.177Z,99.90
2018-09-28T19:57:28.896Z,99.90
2018-09-28T19:59:56.677Z,99.90
2018-09-28T20:02:45.244Z,99.90
2018-09-28T20:05:12.901Z,99.90
2018-09-28T20:07:40.608Z,99.90
2018-09-28T20:10:08.248Z,99.90
2018-09-28T20:12:43.325Z,99.90
2018-09-28T20:15:10.952Z,99.90
2018-09-28T20:17:38.648Z,99.90
2018-09-28T20:20:06.348Z,99.90
2018-09-28T20:22:37.850Z,99.90
2018-09-28T20:25:05.537Z,99.90
2018-09-28T20:27:33.252Z,99.90
2018-09-28T20:30:00.905Z,99.90
2018-09-28T20:32:28.632Z,99.90
2018-09-28T20:34:56.277Z,99.90
2018-09-28T20:37:24.016Z,99.90
2018-09-28T20:39:51.789Z,99.90
2018-09-28T20:42:32.303Z,99.90
2018-09-28T20:45:00.012Z,99.90
2018-09-28T20:47:27.708Z,99.90
2018-09-28T20:49:55.501Z,99.90
2018-09-28T20:52:31.532Z,99.90
2018-09-28T20:54:59.252Z,99.90
2018-09-28T20:57:27.001Z,99.90
2018-09-28T20:59:54.632Z,99.90
2018-09-28T21:02:35.172Z,99.90
2018-09-28T21:05:02.832Z,99.90
2018-09-28T21:07:30.585Z,99.90
2018-09-28T21:09:58.152Z,99.90
2018-09-28T21:12:37.464Z,99.90
2018-09-28T21:15:05.156Z,99.90
2018-09-28T21:17:32.896Z,99.90
2018-09-28T21:20:00.561Z,99.90
2018-09-28T21:22:28.352Z,99.90
2018-09-28T21:24:56.103Z,99.90
2018-09-28T21:27:23.776Z,99.90
2018-09-28T21:29:51.472Z,99.90
2018-09-28T21:32:19.192Z,99.90
2018-09-28T21:34:46.848Z,99.90
2018-09-28T21:37:14.587Z,99.90
2018-09-28T21:39:42.288Z,99.90
2018-09-28T21:42:10.040Z,99.90
2018-09-28T21:44:37.712Z,99.90
2018-09-28T21:47:05.381Z,99.90
2018-09-28T21:49:33.111Z,99.90
2018-09-28T21:52:00.832Z,99.90
2018-09-28T21:54:28.488Z,99.90
2018-09-28T21:56:56.193Z,99.90
2018-09-28T21:59:23.840Z,99.90
2018-09-28T22:01:51.596Z,99.90
2018-09-28T22:04:19.323Z,99.90
2018-09-28T22:06:47.088Z,99.90
2018-09-28T22:09:14.796Z,99.90
2018-09-28T22:11:43.493Z,99.90
2018-09-28T22:14:11.094Z,99.90
2018-09-28T22:16:38.761Z,99.90
2018-09-28T22:19:06.488Z,99.90
2018-09-28T22:21:42.539Z,99.90
2018-09-28T22:24:10.100Z,99.90
2018-09-28T22:26:37.740Z,99.90
2018-09-28T22:29:05.341Z,99.90
2018-09-28T22:31:32.919Z,99.90
2018-09-28T22:34:00.444Z,99.90
2018-09-28T22:36:28.008Z,99.90
2018-09-28T22:38:55.528Z,99.90
2018-09-28T22:41:40.467Z,99.90
2018-09-28T22:44:08.271Z,99.90
2018-09-28T22:46:36.239Z,99.90
2018-09-28T22:49:04.028Z,99.90
2018-09-28T22:51:31.692Z,99.90
2018-09-28T22:53:59.395Z,99.90
2018-09-28T22:56:27.059Z,99.90
2018-09-28T22:58:54.767Z,99.90
2018-09-28T23:01:22.575Z,99.90
2018-09-28T23:03:50.315Z,99.90
2018-09-28T23:06:17.992Z,99.90
2018-09-28T23:08:45.691Z,99.90
2018-09-28T23:11:13.430Z,99.90
2018-09-28T23:13:41.136Z,99.90
2018-09-28T23:16:08.842Z,99.90
2018-09-28T23:18:36.476Z,99.90
2018-09-28T23:21:05.168Z,99.90
2018-09-28T23:23:32.754Z,99.90
2018-09-28T23:26:00.328Z,99.90
2018-09-28T23:28:27.859Z,99.90
2018-09-28T23:31:02.600Z,99.90
2018-09-28T23:33:30.195Z,99.90
2018-09-28T23:35:57.699Z,99.90
2018-09-28T23:38:25.283Z,99.90
2018-09-28T23:40:57.396Z,99.90
2018-09-28T23:43:24.920Z,99.90
2018-09-28T23:45:52.424Z,99.90
2018-09-28T23:48:19.948Z,99.90
2018-09-28T23:50:47.573Z,99.90
2018-09-28T23:53:15.165Z,99.90
2018-09-28T23:55:42.695Z,99.90
2018-09-28T23:58:10.256Z,99.90
